Time;durP1;ratioP1;P1;durP2;ratioP2;P2;SDS_P1;SDS_P2;PMS_P1;PMS_P2;Temp;Humidity;BMP_temperature;BMP_pressure;BME280_temperature;BME280_humidity;BME280_pressure;Samples;Min_cycle;Max_cycle;Signal;HPM_P1;HPM_P2
2022/01/25 00:26:30;;;;;;;4.80;4.13;;;15.10;93.10;;;15.16;44.12;102940.34;4940238;28;97121;-50
2022/01/25 00:29:29;;;;;;;3.00;2.60;;;15.20;93.00;;;15.26;44.06;102941.06;4944462;28;97762;-52
2022/01/25 00:31:43;;;;;;;3.00;2.63;;;15.30;92.90;;;15.29;43.63;102939.22;4937471;28;99682;-53
2022/01/25 00:34:09;;;;;;;2.90;2.70;;;15.40;92.10;;;15.36;43.74;102947.97;4942242;28;97182;-53
2022/01/25 00:36:35;;;;;;;3.03;2.80;;;15.40;92.70;;;15.45;43.54;102945.09;4941079;28;98461;-51
2022/01/25 00:39:03;;;;;;;4.23;3.20;;;15.60;92.40;;;15.55;43.25;102944.03;4959371;28;97686;-51
2022/01/25 00:41:29;;;;;;;3.87;2.90;;;15.70;92.20;;;15.64;43.13;102946.53;4937222;28;97139;-55
2022/01/25 00:43:57;;;;;;;2.60;2.40;;;15.80;92.00;;;15.67;42.88;102943.81;4945650;28;97129;-51
2022/01/25 00:46:23;;;;;;;3.10;2.80;;;15.80;91.90;;;15.72;42.90;102947.25;4939538;28;97019;-53
2022/01/25 00:48:53;;;;;;;3.77;2.50;;;15.90;91.80;;;15.76;42.42;102942.72;4946500;28;96842;-53
2022/01/25 00:54:04;;;;;;;2.50;2.30;;;16.10;91.60;;;15.88;42.75;102947.78;4941794;28;96882;-50
2022/01/25 00:56:36;;;;;;;3.83;2.60;;;16.10;91.50;;;15.90;42.46;102945.97;4942999;28;98304;-49
2022/01/25 00:59:06;;;;;;;3.10;2.80;;;16.20;91.50;;;15.95;42.28;102933.44;4945917;28;98108;-48
2022/01/25 01:01:36;;;;;;;3.83;2.60;;;16.20;91.40;;;15.96;42.27;102931.66;4919613;28;96806;-50
2022/01/25 01:04:04;;;;;;;3.33;2.60;;;16.20;91.30;;;15.96;42.24;102935.19;4927320;28;98234;-49
2022/01/25 01:06:30;;;;;;;3.20;2.80;;;16.10;91.40;;;15.94;42.23;102936.16;4942206;28;97157;-49
2022/01/25 01:08:56;;;;;;;3.23;2.87;;;16.10;91.40;;;15.90;42.22;102939.75;4943742;28;126718;-50
2022/01/25 01:11:37;;;;;;;6.37;3.07;;;16.00;90.80;;;15.81;42.21;102939.97;4941380;28;97523;-52
2022/01/25 01:14:16;;;;;;;3.53;3.17;;;15.80;90.20;;;15.59;42.79;102947.50;4945335;28;98481;-50
2022/01/25 01:30:39;;;;;;;3.43;2.50;;;15.20;92.40;;;15.35;43.43;102960.38;4941727;28;97335;-47
2022/01/25 01:41:05;;;;;;;3.33;3.10;;;15.60;92.10;;;15.54;43.29;102950.25;4953374;28;100500;-52
2022/01/25 01:43:36;;;;;;;3.17;2.90;;;15.60;92.00;;;15.60;43.08;102967.91;4950183;28;97279;-55
2022/01/25 01:48:53;;;;;;;4.00;3.50;;;15.60;91.90;;;15.52;42.90;102960.06;4955516;28;98802;-52
2022/01/25 01:51:37;;;;;;;3.53;2.40;;;15.50;89.50;;;15.40;43.55;102958.50;4950891;28;97523;-53
2022/01/25 01:54:07;;;;;;;2.67;2.47;;;15.30;92.30;;;15.42;43.41;102956.69;4952724;28;101208;-54
2022/01/25 01:56:33;;;;;;;3.10;2.80;;;15.40;92.60;;;15.47;43.25;102959.25;4957678;28;97446;-53
2022/01/25 01:59:04;;;;;;;2.53;2.37;;;15.50;92.30;;;15.48;43.23;102947.72;4957637;28;96936;-51
2022/01/25 02:01:32;;;;;;;2.90;2.50;;;15.50;91.60;;;15.38;43.71;102943.50;4960017;28;104915;-52
2022/01/25 02:04:02;;;;;;;4.77;4.20;;;15.30;92.20;;;15.28;43.77;102956.06;4956138;28;97016;-49
2022/01/25 02:06:28;;;;;;;3.30;2.73;;;15.10;91.90;;;15.17;44.02;102948.28;4944146;28;97155;-51
2022/01/25 02:08:54;;;;;;;4.30;2.47;;;14.90;92.80;;;15.19;43.85;102956.28;4956090;28;97457;-52
2022/01/25 02:11:21;;;;;;;3.17;2.50;;;14.90;93.20;;;15.27;43.60;102953.44;4960364;28;97385;-52
2022/01/25 02:13:48;;;;;;;2.83;2.50;;;15.10;92.90;;;15.35;43.58;102951.53;4961739;28;101066;-52
2022/01/25 02:24:30;;;;;;;3.50;3.07;;;15.70;91.80;;;15.61;42.65;102949.25;4950126;28;97414;-51
2022/01/25 02:26:57;;;;;;;2.63;2.37;;;15.70;91.70;;;15.63;42.83;102950.09;4954066;28;97014;-53
2022/01/25 02:29:23;;;;;;;3.13;2.87;;;15.80;91.60;;;15.67;42.42;102946.47;4947235;28;99059;-60
2022/01/25 02:31:49;;;;;;;3.20;2.90;;;15.80;91.40;;;15.69;42.44;102947.31;4952819;28;103181;-50
2022/01/25 02:34:15;;;;;;;3.73;3.03;;;15.90;91.20;;;15.67;42.58;102957.13;4962635;28;110666;-49
2022/01/25 02:36:41;;;;;;;3.13;2.83;;;15.80;91.30;;;15.71;42.23;102952.59;4950628;28;116757;-48
2022/01/25 02:39:07;;;;;;;3.20;2.90;;;15.90;91.40;;;15.76;42.41;102938.28;4961698;28;113658;-47
2022/01/25 02:41:33;;;;;;;3.87;3.57;;;15.90;91.20;;;15.74;42.24;102950.75;4954466;28;105557;-48
2022/01/25 02:43:59;;;;;;;3.70;3.23;;;15.90;91.20;;;15.79;42.23;102947.13;4963575;28;97083;-52
2022/01/25 02:49:10;;;;;;;3.00;2.80;;;16.00;91.20;;;15.77;42.24;102950.69;4958080;28;97288;-50
2022/01/25 02:51:48;;;;;;;5.00;3.03;;;15.90;91.20;;;15.72;42.64;102941.03;4955891;28;97506;-51
2022/01/25 02:54:16;;;;;;;3.10;2.47;;;15.80;91.50;;;15.70;42.44;102941.06;4960972;28;97008;-50
2022/01/25 02:56:44;;;;;;;2.70;2.50;;;15.80;91.60;;;15.71;42.57;102940.16;4971608;28;97143;-50
2022/01/25 02:59:13;;;;;;;3.00;2.40;;;15.80;91.40;;;15.73;42.27;102933.03;4956837;28;96968;-50
2022/01/25 03:01:40;;;;;;;2.70;2.30;;;15.80;91.40;;;15.75;42.34;102936.53;4946048;28;96844;-50
2022/01/25 03:04:08;;;;;;;2.73;2.53;;;15.90;91.60;;;15.80;42.39;102920.47;4954076;28;97549;-48
2022/01/25 03:06:35;;;;;;;3.00;2.60;;;16.00;91.40;;;15.83;42.27;102927.50;4943448;28;96947;-49
2022/01/25 03:09:03;;;;;;;3.30;2.80;;;16.00;91.00;;;15.80;42.41;102928.47;4956524;28;98514;-53
2022/01/25 03:11:30;;;;;;;3.53;3.00;;;15.90;91.40;;;15.84;42.42;102910.63;4949165;28;97642;-51
2022/01/25 03:13:59;;;;;;;3.07;2.77;;;16.00;91.50;;;15.84;42.34;102911.50;4956013;28;105240;-50
2022/01/25 03:17:05;;;;;;;6.57;6.03;;;15.90;91.30;;;15.79;42.22;102916.06;4914732;28;96885;-52
2022/01/25 03:22:07;;;;;;;3.43;2.57;;;15.90;91.30;;;15.81;42.27;102902.72;4961742;28;96707;-54
2022/01/25 03:24:33;;;;;;;3.43;2.37;;;15.90;90.90;;;15.71;42.52;102913.56;4955862;28;97437;-50
2022/01/25 03:26:59;;;;;;;2.63;2.40;;;15.70;91.80;;;15.61;42.64;102906.66;4962196;28;102723;-51
2022/01/25 03:29:25;;;;;;;2.80;2.60;;;15.60;91.30;;;15.51;42.58;102905.09;4959733;28;98344;-48
2022/01/25 03:31:50;;;;;;;3.13;2.83;;;15.50;90.90;;;15.49;42.91;102901.59;4958960;28;126124;-48
2022/01/25 03:34:16;;;;;;;4.40;4.00;;;15.40;92.10;;;15.42;42.93;102894.63;4960106;28;110537;-51
2022/01/25 03:36:42;;;;;;;3.57;2.70;;;15.40;91.60;;;15.32;43.46;102893.94;4952303;28;97366;-51
2022/01/25 03:39:09;;;;;;;3.10;2.80;;;15.20;92.00;;;15.23;43.35;102893.28;4957371;28;97510;-52
2022/01/25 03:41:36;;;;;;;4.03;2.63;;;15.10;91.80;;;15.28;43.54;102896.69;4957839;28;97593;-52
2022/01/25 03:44:03;;;;;;;3.47;3.00;;;15.10;92.50;;;15.28;43.54;102896.69;4962027;28;97986;-49
2022/01/25 03:46:38;;;;;;;4.20;2.50;;;15.20;92.30;;;15.24;43.26;102900.34;4958175;28;97434;-49
2022/01/25 03:51:50;;;;;;;6.57;5.93;;;15.00;92.40;;;15.10;43.65;102914.75;4954561;28;100511;-50
2022/01/25 03:54:17;;;;;;;2.60;2.40;;;14.90;91.50;;;15.04;44.16;102909.53;4962972;28;97558;-53
2022/01/25 03:56:43;;;;;;;3.70;2.97;;;14.80;92.90;;;14.95;44.32;102909.75;4956739;28;97058;-54
2022/01/25 03:59:09;;;;;;;3.40;2.80;;;14.70;93.10;;;14.99;44.14;102915.88;4960705;28;97077;-49
2022/01/25 04:01:36;;;;;;;2.67;2.47;;;14.80;93.20;;;15.08;44.06;102913.94;4959462;28;96923;-49
2022/01/25 04:04:07;;;;;;;3.40;3.10;;;14.90;92.90;;;15.17;43.81;102900.44;4959818;28;96992;-50
2022/01/25 04:06:36;;;;;;;3.20;2.90;;;15.20;92.60;;;15.21;43.71;102900.41;4949649;28;97391;-48
2022/01/25 04:09:06;;;;;;;3.13;2.87;;;15.30;92.10;;;15.25;43.47;102888.78;4962539;28;97496;-52
2022/01/25 04:11:33;;;;;;;3.40;3.00;;;15.30;91.90;;;15.26;43.54;102893.19;4960084;28;97630;-48
2022/01/25 04:13:59;;;;;;;3.37;3.07;;;15.30;92.30;;;15.30;43.39;102894.88;4961083;28;97036;-49
2022/01/25 04:16:34;;;;;;;3.40;3.10;;;15.30;92.20;;;15.35;43.12;102898.34;4961649;28;97091;-54
2022/01/25 04:19:11;;;;;;;3.27;2.90;;;15.40;92.20;;;15.44;42.95;102890.16;4960734;28;96782;-53
2022/01/25 04:26:52;;;;;;;3.50;3.10;;;15.30;91.30;;;15.33;43.05;102892.16;4950148;28;96879;-51
2022/01/25 04:29:18;;;;;;;3.03;2.73;;;15.30;92.20;;;15.25;43.47;102891.44;4958412;28;98140;-50
2022/01/25 04:31:44;;;;;;;5.40;4.50;;;15.20;92.10;;;15.18;43.60;102890.69;4955575;28;112099;-48
2022/01/25 04:50:06;;;;;;;3.43;3.03;;;14.90;92.90;;;15.16;43.97;102888.06;4955102;28;98975;-48
2022/01/25 04:52:40;;;;;;;3.43;3.00;;;15.10;92.80;;;15.16;43.75;102888.06;4946564;28;97488;-50
2022/01/25 04:55:19;;;;;;;4.17;3.20;;;15.10;92.40;;;15.16;43.87;102881.84;4954376;28;97032;-50
2022/01/25 04:57:52;;;;;;;11.93;10.77;;;15.10;91.50;;;15.02;44.10;102890.09;4952844;28;97189;-47
2022/01/25 05:00:21;;;;;;;6.77;5.30;;;14.80;91.30;;;14.88;44.55;102886.81;4960468;28;98909;-52
2022/01/25 05:02:53;;;;;;;3.87;3.03;;;14.50;91.40;;;14.73;45.01;102876.47;4958316;28;97483;-49
2022/01/25 05:05:37;;;;;;;3.23;2.93;;;14.10;93.10;;;14.68;45.09;102873.03;4961440;28;96849;-52
2022/01/25 05:08:49;;;;;;;9.67;7.93;;;14.10;94.30;;;14.71;44.79;102872.97;4948838;28;97267;-51
2022/01/25 05:11:07;;;;;;;3.47;3.13;;;14.30;93.10;;;14.73;44.86;102871.16;4945013;28;96789;-50
2022/01/25 05:16:48;;;;;;;3.47;3.03;;;14.60;93.20;;;14.88;44.74;102870.88;4953704;28;97032;-51
2022/01/25 05:24:33;;;;;;;3.67;3.00;;;15.10;92.90;;;15.28;43.76;102870.09;4956170;28;97505;-53
2022/01/25 05:26:59;;;;;;;3.17;2.83;;;15.30;92.60;;;15.32;43.59;102872.66;4960615;28;96958;-49
2022/01/25 05:29:24;;;;;;;3.87;3.00;;;15.40;91.90;;;15.38;43.33;102872.56;4954784;28;97078;-52
2022/01/25 05:31:50;;;;;;;3.40;3.10;;;15.50;92.30;;;15.44;43.28;102874.19;4958105;28;116432;-50
2022/01/25 05:34:16;;;;;;;5.40;3.50;;;15.60;92.00;;;15.45;43.10;102871.50;4955406;28;97530;-52
2022/01/25 05:36:43;;;;;;;4.07;3.27;;;15.60;92.00;;;15.47;43.00;102871.47;4959579;28;97070;-48
2022/01/25 05:39:18;;;;;;;3.47;3.07;;;15.60;91.90;;;15.48;43.11;102878.56;4952901;28;97541;-48
2022/01/25 05:41:53;;;;;;;3.33;2.90;;;15.60;91.90;;;15.55;42.79;102885.50;4944712;28;97264;-52
2022/01/25 05:44:25;;;;;;;3.03;2.83;;;15.70;91.80;;;15.60;43.07;102880.97;4952844;28;99593;-52
2022/01/25 05:49:24;;;;;;;3.80;3.23;;;15.80;91.70;;;15.69;42.76;102874.59;4957408;28;96934;-58
2022/01/25 05:51:50;;;;;;;4.10;3.70;;;15.80;91.60;;;15.65;42.60;102881.78;4952263;28;97023;-49
2022/01/25 05:54:16;;;;;;;3.20;2.90;;;15.80;90.30;;;15.67;42.59;102873.75;4960162;28;97522;-48
2022/01/25 05:56:42;;;;;;;3.57;3.27;;;15.70;91.60;;;15.68;42.65;102876.38;4947441;28;97407;-54
2022/01/25 05:59:08;;;;;;;5.07;4.50;;;15.80;91.70;;;15.66;42.60;102878.19;4948943;28;109561;-49
2022/01/25 06:01:35;;;;;;;16.00;12.17;;;15.80;91.60;;;15.52;42.83;102880.25;4951218;28;111902;-50
2022/01/25 06:04:02;;;;;;;3.73;3.20;;;15.50;89.30;;;15.45;43.05;102870.63;4952902;28;97027;-52
2022/01/25 06:06:29;;;;;;;4.63;4.10;;;15.30;92.30;;;15.36;43.30;102873.50;4955821;28;96846;-52
2022/01/25 06:08:56;;;;;;;3.90;3.50;;;15.20;92.00;;;15.33;43.67;102868.22;4959316;28;97196;-53
2022/01/25 06:11:22;;;;;;;4.10;3.70;;;15.20;92.70;;;15.35;43.51;102874.41;4958067;28;96697;-52
2022/01/25 06:13:48;;;;;;;3.70;3.40;;;15.20;92.60;;;15.34;43.38;102870.00;4945598;28;100522;-49
2022/01/25 06:16:14;;;;;;;3.47;3.17;;;15.30;92.10;;;15.31;43.64;102870.03;4957645;28;96915;-49
2022/01/25 06:18:40;;;;;;;4.57;4.10;;;15.20;92.50;;;15.29;43.64;102872.72;4955819;28;97156;-52
2022/01/25 06:21:06;;;;;;;5.07;3.77;;;15.20;92.60;;;15.32;43.65;102872.66;4953786;28;97393;-54
2022/01/25 06:23:32;;;;;;;4.00;3.70;;;15.30;92.40;;;15.28;43.55;102881.63;4955459;28;116338;-54
2022/01/25 06:25:58;;;;;;;4.30;3.90;;;15.20;92.20;;;15.28;43.41;102875.44;4961240;28;110070;-54
2022/01/25 06:28:23;;;;;;;4.00;3.60;;;15.20;91.70;;;15.22;43.71;102875.56;4954075;28;96944;-60
2022/01/25 06:30:49;;;;;;;4.27;3.83;;;15.10;92.30;;;15.27;43.59;102874.56;4957677;28;109833;-49
2022/01/25 06:33:15;;;;;;;4.93;4.53;;;15.20;92.60;;;15.30;43.27;102873.59;4957264;28;97183;-47
2022/01/25 06:35:45;;;;;;;3.80;3.40;;;15.30;92.00;;;15.32;43.36;102871.78;4958965;28;98238;-54
2022/01/25 06:38:11;;;;;;;4.40;4.00;;;15.30;92.30;;;15.32;43.61;102870.00;4957508;28;97366;-49
2022/01/25 06:40:37;;;;;;;5.10;3.53;;;15.30;91.90;;;15.33;43.55;102877.06;4956099;28;96906;-54
2022/01/25 06:43:03;;;;;;;3.70;3.40;;;15.30;92.30;;;15.30;43.59;102873.59;4955424;28;96839;-50
2022/01/25 06:45:29;;;;;;;4.20;3.87;;;15.20;91.30;;;15.29;43.62;102885.16;4954689;28;111816;-47
2022/01/25 06:47:54;;;;;;;4.03;3.70;;;15.20;92.60;;;15.18;43.85;102888.03;4959950;28;96875;-52
2022/01/25 06:50:23;;;;;;;4.03;3.70;;;15.00;91.10;;;15.13;43.75;102882.81;4957475;28;111686;-53
2022/01/25 06:52:50;;;;;;;3.87;3.53;;;14.90;92.50;;;15.06;44.01;102883.84;4957212;28;101844;-51
2022/01/25 06:55:18;;;;;;;3.33;3.03;;;14.80;92.30;;;15.07;43.97;102885.59;4954183;28;97103;-51
2022/01/25 06:57:46;;;;;;;4.90;4.47;;;14.80;93.30;;;15.08;43.72;102892.66;4960216;28;97389;-47
2022/01/25 07:00:16;;;;;;;4.27;3.97;;;14.90;91.00;;;15.04;44.17;102888.28;4954056;28;97374;-51
2022/01/25 07:02:42;;;;;;;3.57;3.27;;;14.80;91.30;;;15.02;44.42;102898.06;4949021;28;97156;-49
2022/01/25 07:05:09;;;;;;;5.70;4.60;;;14.70;93.20;;;15.02;44.24;102890.09;4956317;28;96970;-52
2022/01/25 07:07:37;;;;;;;5.63;4.47;;;14.70;92.70;;;15.11;44.31;102887.28;4953467;28;97195;-52
2022/01/25 07:10:04;;;;;;;8.43;7.27;;;14.90;93.20;;;15.14;43.97;102891.66;4954352;28;97550;-50
2022/01/25 07:12:30;;;;;;;3.43;3.13;;;15.00;92.00;;;15.21;44.04;102884.44;4950720;28;99211;-51
2022/01/25 07:14:56;;;;;;;4.43;4.03;;;15.10;92.70;;;15.22;43.69;102891.53;4949491;28;122048;-48
2022/01/25 07:17:22;;;;;;;4.47;3.63;;;15.10;91.80;;;15.26;43.79;102895.84;4956625;28;96992;-50
2022/01/25 07:19:48;;;;;;;7.27;6.13;;;15.20;92.40;;;15.15;43.72;102891.63;4956864;28;98400;-49
2022/01/25 07:22:14;;;;;;;4.10;3.80;;;14.90;91.20;;;15.14;44.04;102895.19;4955297;28;96995;-50
2022/01/25 07:24:40;;;;;;;7.27;4.70;;;14.90;92.90;;;15.11;44.03;102887.28;4955102;28;126382;-49
2022/01/25 07:27:06;;;;;;;17.73;15.83;;;14.90;92.70;;;15.04;43.36;102896.25;4954487;28;112143;-50
2022/01/25 07:29:32;;;;;;;10.33;9.23;;;14.80;90.20;;;14.99;43.95;102906.09;4950616;28;97429;-51
2022/01/25 07:31:59;;;;;;;4.33;4.00;;;14.70;91.90;;;14.95;44.29;102901.75;4956650;28;97383;-49
2022/01/25 07:34:26;;;;;;;5.00;4.50;;;14.60;93.40;;;14.99;44.31;102887.50;4951521;28;97993;-52
2022/01/25 07:36:52;;;;;;;4.87;4.37;;;14.80;93.00;;;15.01;44.17;102904.28;4955057;28;97239;-53
2022/01/25 07:39:18;;;;;;;4.70;4.10;;;14.80;92.80;;;15.06;44.07;102896.25;4952151;28;112608;-49
2022/01/25 07:41:45;;;;;;;4.33;3.97;;;14.90;93.00;;;15.07;44.06;102892.69;4950748;28;98416;-54
2022/01/25 07:44:11;;;;;;;22.77;20.03;;;14.90;91.80;;;14.98;43.56;102898.16;4952011;28;96828;-51
2022/01/25 07:46:37;;;;;;;10.93;9.93;;;14.80;90.20;;;14.81;44.47;102890.50;4956195;28;102897;-49
2022/01/25 07:49:05;;;;;;;14.83;13.33;;;14.40;91.30;;;14.63;44.72;102885.53;4952823;28;97334;-51
2022/01/25 07:51:31;;;;;;;12.27;10.60;;;14.00;91.70;;;14.47;45.06;102888.44;4956647;28;97547;-48
2022/01/25 07:53:59;;;;;;;5.33;4.57;;;13.80;92.30;;;14.38;45.69;102891.22;4952173;28;97081;-48
2022/01/25 07:56:26;;;;;;;4.57;4.13;;;13.60;94.10;;;14.41;45.56;102896.47;4957836;28;97241;-52
2022/01/25 07:58:54;;;;;;;4.80;4.40;;;13.80;95.00;;;14.63;45.42;102891.72;4956695;28;97964;-52
2022/01/25 08:01:21;;;;;;;4.87;4.47;;;14.30;94.30;;;14.72;44.93;102903.94;4958050;28;115567;-50
2022/01/25 08:03:47;;;;;;;4.27;3.90;;;14.50;93.70;;;14.92;44.59;102893.84;4951890;28;97275;-50
2022/01/25 08:06:13;;;;;;;4.80;4.40;;;14.80;93.30;;;15.08;44.35;102900.63;4943695;28;113265;-50
2022/01/25 08:08:40;;;;;;;4.10;3.70;;;15.10;92.80;;;15.19;43.94;102903.09;4942317;28;102811;-50
2022/01/25 08:11:07;;;;;;;4.70;3.93;;;15.30;92.60;;;15.32;43.54;102898.38;4942215;28;98754;-52
2022/01/25 08:13:36;;;;;;;5.13;4.50;;;15.40;92.30;;;15.38;43.48;102895.63;4941142;28;97093;-52
2022/01/25 08:16:02;;;;;;;5.20;4.10;;;15.50;92.00;;;15.46;43.39;102901.63;4943920;28;97862;-53
2022/01/25 08:18:28;;;;;;;4.37;3.97;;;15.60;92.00;;;15.55;43.04;102901.47;4942439;28;98123;-50
2022/01/25 08:20:53;;;;;;;4.97;4.43;;;15.70;91.80;;;15.66;42.61;102894.16;4946003;28;97315;-49
2022/01/25 08:23:19;;;;;;;5.60;5.07;;;15.80;91.50;;;15.73;42.40;102889.56;4943775;28;125142;-51
2022/01/25 08:25:45;;;;;;;4.77;4.07;;;15.90;91.20;;;15.70;42.65;102895.84;4933548;28;97476;-53
2022/01/25 08:28:11;;;;;;;4.70;4.30;;;15.80;91.50;;;15.71;42.45;102889.59;4946884;28;97658;-52
2022/01/25 08:30:37;;;;;;;5.47;4.97;;;15.80;91.40;;;15.74;42.46;102892.19;4940817;28;119861;-47
2022/01/25 08:33:03;;;;;;;5.17;4.77;;;15.90;91.30;;;15.80;42.44;102893.00;4946098;28;97389;-50
2022/01/25 08:35:29;;;;;;;5.63;4.77;;;16.00;91.30;;;15.85;42.16;102904.41;4941280;28;97013;-56
2022/01/25 08:37:54;;;;;;;5.03;4.63;;;16.00;91.20;;;15.86;42.10;102907.03;4948900;28;98347;-52
2022/01/25 08:40:20;;;;;;;6.73;6.10;;;16.00;91.10;;;15.84;41.91;102903.53;4947629;28;100033;-49
2022/01/25 08:42:46;;;;;;;5.10;4.67;;;16.00;90.60;;;15.76;42.11;102906.34;4941093;28;116476;-52
2022/01/25 08:45:12;;;;;;;6.33;5.73;;;15.90;90.80;;;15.74;42.59;102904.63;4944955;28;113289;-54
2022/01/25 08:47:38;;;;;;;28.03;25.10;;;15.80;91.20;;;13.71;39.99;102908.09;4941033;28;105745;-44
2022/01/25 08:50:06;;;;;;;32.00;28.37;;;13.80;89.20;;;12.26;42.87;102911.31;4947103;28;99197;-50
2022/01/25 08:52:31;;;;;;;30.50;27.30;;;12.00;92.40;;;10.92;44.86;102913.59;4942621;28;98865;-52
2022/01/25 08:54:57;;;;;;;13.80;12.40;;;10.70;94.00;;;11.93;50.88;102913.28;4946247;28;116941;-48
2022/01/25 08:57:23;;;;;;;12.13;10.83;;;11.30;98.80;;;12.44;48.13;102909.44;4945452;28;97322;-55
2022/01/25 08:59:49;;;;;;;11.50;10.27;;;12.10;96.30;;;12.92;47.20;102911.66;4942444;28;103184;-47
2022/01/25 09:02:15;;;;;;;13.10;9.63;;;12.80;95.30;;;13.43;46.54;102922.59;4945806;28;127738;-49
2022/01/25 09:04:41;;;;;;;10.03;9.03;;;13.40;94.60;;;13.73;45.79;102921.34;4940345;28;112721;-51
2022/01/25 09:07:06;;;;;;;9.97;8.87;;;13.80;93.90;;;14.09;44.91;102914.69;4945407;28;97640;-50
2022/01/25 09:09:33;;;;;;;9.40;8.10;;;14.20;93.30;;;14.31;44.32;102932.00;4940674;28;97641;-49
2022/01/25 09:11:59;;;;;;;10.03;8.07;;;14.40;92.90;;;14.56;44.07;102922.81;4944295;28;97047;-52
2022/01/25 09:14:25;;;;;;;10.13;7.23;;;14.70;92.60;;;14.80;43.60;102918.88;4940668;28;98830;-51
2022/01/25 09:16:51;;;;;;;9.00;7.43;;;14.90;92.20;;;15.00;43.15;102922.94;4941498;28;98191;-47
2022/01/25 09:19:16;;;;;;;7.20;6.50;;;15.20;91.90;;;15.11;43.05;102927.16;4944825;28;98954;-52
2022/01/25 09:21:43;;;;;;;8.63;6.63;;;15.30;91.70;;;15.24;43.01;102916.28;4939923;28;124965;-52
2022/01/25 09:24:10;;;;;;;8.63;6.60;;;15.50;91.60;;;15.34;42.56;102923.19;4942819;28;117837;-48
2022/01/25 09:26:36;;;;;;;8.03;6.23;;;15.50;91.40;;;15.43;42.39;102929.19;4940195;28;96824;-49
2022/01/25 09:29:02;;;;;;;6.53;5.93;;;15.60;91.40;;;15.52;42.49;102927.25;4946047;28;97384;-50
2022/01/25 09:31:28;;;;;;;6.57;5.90;;;15.80;91.20;;;15.62;42.27;102928.81;4939665;28;102257;-51
2022/01/25 09:33:55;;;;;;;6.53;5.80;;;15.80;91.00;;;15.69;41.94;102933.13;4942823;28;96930;-52
2022/01/25 09:36:21;;;;;;;7.40;6.00;;;15.90;90.70;;;15.75;41.69;102935.66;4942994;28;96984;-53
2022/01/25 09:38:47;;;;;;;8.43;6.80;;;16.00;90.70;;;15.77;41.57;102942.72;4938370;28;98039;-52
2022/01/25 09:41:14;;;;;;;6.60;5.90;;;16.00;90.60;;;15.80;41.39;102948.88;4941958;28;107322;-54
2022/01/25 09:43:39;;;;;;;6.60;5.97;;;16.00;90.50;;;15.83;41.52;102949.69;4939147;28;97337;-48
2022/01/25 09:46:05;;;;;;;6.57;5.90;;;16.00;90.50;;;15.87;41.57;102945.16;4943211;28;97467;-54
2022/01/25 09:48:31;;;;;;;6.37;5.57;;;16.10;90.40;;;15.92;41.24;102937.97;4940155;28;121776;-50
2022/01/25 09:50:58;;;;;;;7.07;5.73;;;16.10;90.30;;;15.91;41.34;102937.09;4943589;28;117055;-52
2022/01/25 09:53:29;;;;;;;6.90;5.83;;;16.10;90.00;;;15.89;41.34;102946.88;4945242;28;97581;-55
2022/01/25 09:55:56;;;;;;;6.77;5.47;;;16.00;90.40;;;15.88;41.48;102946.91;4947852;28;97746;-52
2022/01/25 09:58:22;;;;;;;7.70;5.27;;;16.00;90.30;;;15.85;41.17;102941.66;4943738;28;119341;-53
2022/01/25 10:00:54;;;;;;;6.00;5.40;;;16.00;89.80;;;15.84;41.49;102948.75;4938968;28;114187;-51
2022/01/25 10:03:29;;;;;;;5.83;5.00;;;15.90;90.60;;;15.83;41.79;102943.47;4943474;28;97525;-51
2022/01/25 10:05:56;;;;;;;6.33;5.70;;;15.90;90.60;;;15.82;41.73;102953.25;4943027;28;97022;-51
2022/01/25 10:08:27;;;;;;;5.70;5.20;;;16.00;90.50;;;15.76;41.66;102943.59;4943924;28;97675;-52
2022/01/25 10:10:57;;;;;;;5.07;4.63;;;15.80;90.70;;;15.74;41.69;102952.53;4940771;28;99980;-47
2022/01/25 10:13:37;;;;;;;7.20;5.63;;;15.90;90.80;;;15.81;41.59;102950.63;4943242;28;97285;-49
2022/01/25 10:16:13;;;;;;;6.10;5.50;;;16.00;90.70;;;15.84;41.46;102950.56;4942529;28;96982;-50
2022/01/25 10:18:47;;;;;;;6.17;5.10;;;16.00;90.50;;;15.89;41.39;102949.53;4939697;28;97288;-55
2022/01/25 10:21:21;;;;;;;5.97;5.37;;;16.10;90.40;;;15.94;41.31;102952.13;4943846;28;98160;-50
2022/01/25 10:24:10;;;;;;;7.53;5.23;;;16.20;90.30;;;15.99;41.27;102963.53;4942784;28;97061;-50
2022/01/25 10:26:42;;;;;;;5.10;4.57;;;16.20;90.00;;;16.02;41.18;102968.78;4939525;28;98072;-53
2022/01/25 10:29:11;;;;;;;5.67;4.93;;;16.20;90.00;;;15.98;41.00;102965.31;4945091;28;97628;-49
2022/01/25 10:31:41;;;;;;;6.17;4.90;;;16.20;90.10;;;16.01;41.18;102970.56;4942010;28;97342;-50
2022/01/25 10:34:10;;;;;;;5.10;4.47;;;16.20;89.80;;;16.02;41.02;102966.13;4943256;28;97371;-54
2022/01/25 10:36:46;;;;;;;4.90;4.43;;;16.20;90.00;;;16.02;41.09;102963.47;4934844;28;97432;-51
2022/01/25 10:39:19;;;;;;;5.33;4.50;;;16.20;90.10;;;15.97;41.01;102965.34;4941397;28;97062;-47
2022/01/25 10:41:45;;;;;;;4.60;4.07;;;16.10;89.80;;;15.97;41.20;102963.56;4939720;28;107958;-52
2022/01/25 10:44:12;;;;;;;4.83;4.33;;;16.10;90.20;;;16.01;41.23;102964.38;4942247;28;104798;-52
2022/01/25 10:46:38;;;;;;;6.00;5.10;;;16.20;90.10;;;16.00;41.03;102962.63;4940752;28;98245;-50
2022/01/25 10:49:07;;;;;;;4.83;4.13;;;16.10;87.30;;;16.01;41.30;102953.72;4940328;28;98763;-53
2022/01/25 10:51:45;;;;;;;5.73;4.83;;;16.10;90.20;;;16.03;41.25;102957.22;4937379;28;96936;-54
2022/01/25 10:54:22;;;;;;;5.10;4.60;;;16.10;89.90;;;16.04;41.14;102948.31;4943668;28;97507;-55
2022/01/25 10:56:54;;;;;;;5.17;4.60;;;16.20;90.10;;;16.08;40.98;102952.69;4945646;28;97473;-50
2022/01/25 10:59:32;;;;;;;6.50;5.83;;;16.30;90.10;;;16.07;41.20;102945.63;4944062;28;97650;-47
2022/01/25 11:02:06;;;;;;;5.70;4.20;;;16.30;88.70;;;16.07;41.25;102940.28;4940412;28;102507;-52
2022/01/25 11:04:39;;;;;;;5.27;4.57;;;16.20;90.20;;;16.10;41.21;102937.56;4941780;28;96796;-52
2022/01/25 11:07:08;;;;;;;4.90;4.40;;;16.30;90.10;;;16.11;41.05;102933.97;4942946;28;97104;-53
2022/01/25 11:09:45;;;;;;;5.30;4.80;;;16.30;90.10;;;16.13;41.19;102932.16;4942502;28;98085;-49
2022/01/25 11:12:17;;;;;;;4.50;4.03;;;16.30;90.00;;;16.13;41.28;102942.81;4942084;28;96828;-50
2022/01/25 11:22:09;;;;;;;5.60;4.63;;;16.30;89.80;;;16.09;40.86;102934.94;4903140;28;97133;-53
2022/01/25 11:24:35;;;;;;;6.67;4.70;;;16.30;89.90;;;16.10;41.12;102932.22;4942343;28;98139;-55
2022/01/25 11:27:05;;;;;;;5.00;4.50;;;16.30;89.50;;;16.08;41.23;102939.38;4940274;28;110628;-54
2022/01/25 11:29:35;;;;;;;4.70;4.30;;;16.20;89.90;;;16.10;41.17;102932.22;4940852;28;96954;-53
2022/01/25 11:32:14;;;;;;;7.03;4.67;;;16.30;90.00;;;16.12;40.82;102930.41;4940322;28;98107;-52
2022/01/25 11:34:44;;;;;;;5.23;4.70;;;16.30;89.70;;;16.13;41.03;102932.16;4941218;28;97257;-55
2022/01/25 11:37:12;;;;;;;6.70;4.97;;;16.40;89.50;;;16.15;41.07;102935.66;4940135;28;98663;-52
2022/01/25 11:39:44;;;;;;;5.10;4.47;;;16.40;89.70;;;16.13;41.06;102926.81;4942066;28;97484;-52
2022/01/25 11:42:24;;;;;;;5.87;5.37;;;16.40;89.80;;;16.17;41.14;102938.28;4944750;28;99836;-54
2022/01/25 11:44:56;;;;;;;7.13;5.87;;;16.40;89.60;;;16.19;41.00;102936.44;4940204;28;99567;-50
2022/01/25 11:47:36;;;;;;;6.40;5.17;;;16.50;89.80;;;16.19;41.19;102939.97;4947685;28;97032;-52
2022/01/25 11:50:10;;;;;;;6.13;5.43;;;16.40;89.70;;;16.14;41.08;102933.91;4943139;28;97076;-52
2022/01/25 11:52:50;;;;;;;6.57;5.47;;;16.40;89.70;;;16.16;41.10;102934.72;4943307;28;98274;-51
2022/01/25 11:55:30;;;;;;;7.10;6.20;;;16.40;89.70;;;16.18;40.98;102940.91;4940899;28;97219;-50
2022/01/25 11:58:14;;;;;;;7.60;5.60;;;16.40;89.30;;;16.19;40.82;102937.31;4943863;28;96769;-48
2022/01/25 12:00:54;;;;;;;7.87;6.30;;;16.40;89.30;;;16.19;40.65;102937.31;4901825;28;96980;-49
2022/01/25 12:03:28;;;;;;;7.03;6.30;;;16.40;89.10;;;16.18;40.88;102934.69;4945325;28;98314;-47
2022/01/25 12:06:32;;;;;;;6.83;5.47;;;16.40;89.20;;;16.16;40.97;102931.19;4936222;28;100963;-50